createdAt,value
2023-04-13T00:01:11.548Z,99.90
2023-04-13T00:03:39.729Z,99.90
2023-04-13T00:06:11.110Z,99.90
2023-04-13T00:08:38.641Z,99.90
2023-04-13T00:11:08.356Z,99.90
2023-04-13T00:13:41.570Z,99.90
2023-04-13T00:16:13.421Z,99.90
2023-04-13T00:18:40.307Z,99.90
2023-04-13T00:21:07.702Z,99.90
2023-04-13T00:23:36.363Z,99.90
2023-04-13T00:26:03.333Z,99.90
2023-04-13T00:28:30.279Z,99.90
2023-04-13T00:30:57.249Z,99.90
2023-04-13T00:33:24.316Z,99.90
2023-04-13T00:35:51.847Z,99.90
2023-04-13T00:38:18.661Z,99.90
2023-04-13T00:40:45.973Z,99.90
2023-04-13T00:43:12.920Z,99.90
2023-04-13T00:45:40.117Z,99.90
2023-04-13T00:48:12.475Z,99.90
2023-04-13T00:50:40.412Z,99.90
2023-04-13T00:53:10.969Z,99.90
2023-04-13T00:55:40.586Z,99.90
2023-04-13T00:58:08.159Z,99.90
2023-04-13T01:00:39.222Z,99.90
2023-04-13T01:03:06.584Z,99.90
2023-04-13T01:05:49.150Z,99.90
2023-04-13T01:08:29.667Z,99.90
2023-04-13T01:11:07.219Z,99.90
2023-04-13T01:13:52.848Z,99.90
2023-04-13T01:16:23.779Z,99.90
2023-04-13T01:18:54.183Z,99.90
2023-04-13T01:21:26.224Z,99.90
2023-04-13T01:24:17.990Z,99.90
2023-04-13T01:27:06.420Z,99.90
2023-04-13T01:29:35.269Z,99.90
2023-04-13T01:32:02.959Z,99.90
2023-04-13T01:34:30.208Z,99.90
2023-04-13T01:36:57.521Z,99.90
2023-04-13T01:39:32.141Z,99.90
2023-04-13T01:41:59.682Z,99.90
2023-04-13T01:44:32.491Z,99.90
2023-04-13T01:47:15.983Z,99.90
2023-04-13T01:49:55.236Z,99.90
2023-04-13T01:52:24.465Z,99.90
2023-04-13T01:54:52.109Z,99.90
2023-04-13T01:57:19.847Z,99.90
2023-04-13T01:59:47.041Z,99.90
2023-04-13T02:02:16.957Z,99.90
2023-04-13T02:04:43.981Z,99.90
2023-04-13T02:07:12.601Z,99.90
2023-04-13T02:09:39.743Z,99.90
2023-04-13T02:12:07.080Z,99.90
2023-04-13T02:14:33.842Z,99.90
2023-04-13T02:17:01.996Z,99.90
2023-04-13T02:19:30.711Z,99.90
2023-04-13T02:21:57.531Z,99.90
2023-04-13T02:24:24.863Z,99.90
2023-04-13T02:26:51.675Z,99.90
2023-04-13T02:29:19.932Z,99.90
2023-04-13T02:31:46.803Z,99.90
2023-04-13T02:34:13.602Z,99.90
2023-04-13T02:36:43.015Z,99.90
2023-04-13T02:39:09.823Z,99.90
2023-04-13T02:41:36.643Z,99.90
2023-04-13T02:44:03.490Z,99.90
2023-04-13T02:46:32.663Z,99.90
2023-04-13T02:49:00.134Z,99.90
2023-04-13T02:51:28.115Z,99.90
2023-04-13T02:53:57.819Z,99.90
2023-04-13T02:56:28.681Z,99.90
2023-04-13T02:58:55.770Z,99.90
2023-04-13T03:01:25.824Z,99.90
2023-04-13T03:03:52.801Z,99.90
2023-04-13T03:06:19.584Z,99.90
2023-04-13T03:08:46.424Z,99.90
2023-04-13T03:11:13.192Z,99.90
2023-04-13T03:13:39.990Z,99.90
2023-04-13T03:16:07.142Z,99.90
2023-04-13T03:18:33.897Z,99.90
2023-04-13T03:21:02.052Z,99.90
2023-04-13T03:23:29.530Z,99.90
2023-04-13T03:25:56.373Z,99.90
2023-04-13T03:28:23.905Z,99.90
2023-04-13T03:30:51.815Z,99.90
2023-04-13T03:33:18.656Z,99.90
2023-04-13T03:35:47.153Z,99.90
2023-04-13T03:38:15.971Z,99.90
2023-04-13T03:40:42.782Z,99.90
2023-04-13T03:43:10.292Z,99.90
2023-04-13T03:45:37.187Z,99.90
2023-04-13T03:48:06.114Z,99.90
2023-04-13T03:50:33.093Z,99.90
2023-04-13T03:53:01.516Z,99.90
2023-04-13T03:55:29.164Z,99.90
2023-04-13T03:57:56.070Z,99.90
2023-04-13T04:00:23.016Z,99.90
2023-04-13T04:02:50.017Z,99.90
2023-04-13T04:05:18.666Z,99.90
2023-04-13T04:07:45.540Z,99.90
2023-04-13T04:10:12.372Z,99.90
2023-04-13T04:12:39.191Z,99.90
2023-04-13T04:15:07.978Z,99.90
2023-04-13T04:17:36.064Z,99.90
2023-04-13T04:20:06.320Z,99.90
2023-04-13T04:22:38.559Z,99.90
2023-04-13T04:25:06.587Z,99.90
2023-04-13T04:27:38.404Z,99.90
2023-04-13T04:30:06.444Z,99.90
2023-04-13T04:32:37.040Z,99.90
2023-04-13T04:35:05.187Z,99.90
2023-04-13T04:37:37.829Z,99.90
2023-04-13T04:40:09.692Z,99.90
2023-04-13T04:42:40.051Z,99.90
2023-04-13T04:45:07.478Z,99.90
2023-04-13T04:47:53.583Z,99.90
2023-04-13T04:50:22.091Z,99.90
2023-04-13T04:52:48.996Z,99.90
2023-04-13T04:55:16.053Z,99.90
2023-04-13T04:57:49.448Z,99.90
2023-04-13T05:00:17.057Z,99.90
2023-04-13T05:02:45.845Z,99.90
2023-04-13T05:05:14.491Z,99.90
2023-04-13T05:07:41.313Z,99.90
2023-04-13T05:10:10.253Z,99.90
2023-04-13T05:12:37.858Z,99.90
2023-04-13T05:15:05.369Z,99.90
2023-04-13T05:17:32.765Z,99.90
2023-04-13T05:19:59.572Z,99.90
2023-04-13T05:22:28.365Z,99.90
2023-04-13T05:24:55.179Z,99.90
2023-04-13T05:27:22.144Z,99.90
2023-04-13T05:29:48.952Z,99.90
2023-04-13T05:32:15.791Z,99.90
2023-04-13T05:34:42.629Z,99.90
2023-04-13T05:37:10.626Z,99.90
2023-04-13T05:39:38.046Z,99.90
2023-04-13T05:42:04.885Z,99.90
2023-04-13T05:44:31.747Z,99.90
2023-04-13T05:47:01.475Z,99.90
2023-04-13T05:49:31.628Z,99.90
2023-04-13T05:51:58.700Z,99.90
2023-04-13T05:54:25.853Z,99.90
2023-04-13T05:56:52.650Z,99.90
2023-04-13T05:59:19.566Z,99.90
2023-04-13T06:01:46.640Z,99.90
2023-04-13T06:04:15.887Z,99.90
2023-04-13T06:06:45.650Z,99.90
2023-04-13T06:09:13.460Z,99.90
2023-04-13T06:11:40.593Z,99.90
2023-04-13T06:14:07.689Z,99.90
2023-04-13T06:16:34.600Z,99.90
2023-04-13T06:19:02.004Z,99.90
2023-04-13T06:21:30.348Z,99.90
2023-04-13T06:23:58.042Z,99.90
2023-04-13T06:26:25.974Z,99.90
2023-04-13T06:28:52.977Z,99.90
2023-04-13T06:31:21.264Z,99.90
2023-04-13T06:33:48.246Z,99.90
2023-04-13T06:36:15.104Z,99.90
2023-04-13T06:38:41.943Z,99.90
2023-04-13T06:41:08.838Z,99.90
2023-04-13T06:43:36.080Z,99.90
2023-04-13T06:46:04.592Z,99.90
2023-04-13T06:48:31.612Z,99.90
2023-04-13T06:50:59.871Z,99.90
2023-04-13T06:53:26.679Z,99.90
2023-04-13T06:55:54.529Z,99.90
2023-04-13T06:58:23.438Z,99.90
2023-04-13T07:00:50.476Z,99.90
2023-04-13T07:03:17.629Z,99.90
2023-04-13T07:05:47.463Z,99.90
2023-04-13T07:08:14.373Z,99.90
2023-04-13T07:10:41.278Z,99.90
2023-04-13T07:13:08.425Z,99.90
2023-04-13T07:15:37.870Z,99.90
2023-04-13T07:18:05.329Z,99.90
2023-04-13T07:20:32.206Z,99.90
2023-04-13T07:23:00.060Z,99.90
2023-04-13T07:25:27.289Z,99.90
2023-04-13T07:27:55.150Z,99.90
2023-04-13T07:30:22.156Z,99.90
2023-04-13T07:32:51.132Z,99.90
2023-04-13T07:35:19.537Z,99.90
2023-04-13T07:37:52.900Z,99.90
2023-04-13T07:40:20.489Z,99.90
2023-04-13T07:42:50.338Z,99.90
2023-04-13T07:45:18.242Z,99.90
2023-04-13T07:47:45.063Z,99.90
2023-04-13T07:50:12.026Z,99.90
2023-04-13T07:52:39.068Z,99.90
2023-04-13T07:55:07.553Z,99.90
2023-04-13T07:57:35.835Z,99.90
2023-04-13T08:00:07.052Z,99.90
2023-04-13T08:05:01.694Z,99.90
2023-04-13T08:07:29.954Z,99.90
2023-04-13T08:09:56.814Z,99.90
2023-04-13T08:12:23.600Z,99.90
2023-04-13T08:14:50.392Z,99.90
2023-04-13T08:17:17.254Z,99.90
2023-04-13T08:19:44.117Z,99.90
2023-04-13T08:22:12.089Z,99.90
2023-04-13T08:24:38.938Z,99.90
2023-04-13T08:27:08.445Z,99.90
2023-04-13T08:29:35.238Z,99.90
2023-04-13T08:32:02.105Z,99.90
2023-04-13T08:34:29.349Z,99.90
2023-04-13T08:37:21.472Z,99.90
2023-04-13T08:39:52.774Z,99.90
2023-04-13T08:42:23.700Z,99.90
2023-04-13T08:44:53.475Z,99.90
2023-04-13T08:47:21.471Z,99.90
2023-04-13T08:49:52.751Z,99.90
2023-04-13T08:52:23.591Z,99.90
2023-04-13T08:54:57.969Z,99.90
2023-04-13T09:00:13.647Z,99.90
2023-04-13T09:03:02.945Z,99.90
2023-04-13T09:05:49.003Z,99.90
2023-04-13T09:16:44.517Z,99.90
2023-04-13T09:19:33.332Z,99.90
2023-04-13T09:24:45.192Z,99.90
2023-04-13T09:27:24.111Z,99.90
2023-04-13T09:29:58.369Z,99.90
2023-04-13T09:32:29.434Z,99.90
2023-04-13T09:35:08.396Z,99.90
2023-04-13T09:37:37.360Z,99.90
2023-04-13T09:40:19.014Z,99.90
2023-04-13T09:43:06.403Z,99.90
2023-04-13T09:45:38.407Z,99.90
2023-04-13T09:48:18.910Z,99.90
2023-04-13T09:50:46.514Z,99.90
2023-04-13T09:53:15.223Z,99.90
2023-04-13T09:55:44.911Z,99.90
2023-04-13T09:58:18.185Z,99.90
2023-04-13T10:00:46.713Z,99.90
2023-04-13T10:03:15.589Z,99.90
2023-04-13T10:05:58.681Z,99.90
2023-04-13T10:08:37.521Z,99.90
2023-04-13T10:11:17.074Z,99.90
2023-04-13T10:13:58.697Z,99.90
2023-04-13T10:16:55.274Z,99.90
2023-04-13T10:19:33.650Z,99.90
2023-04-13T10:22:01.964Z,99.90
2023-04-13T10:24:29.350Z,99.90
2023-04-13T10:27:06.434Z,99.90
2023-04-13T10:29:38.854Z,99.90
2023-04-13T10:32:08.095Z,99.90
2023-04-13T10:34:38.458Z,99.90
2023-04-13T10:45:45.570Z,99.90
2023-04-13T10:48:33.105Z,99.90
2023-04-13T10:51:14.102Z,99.90
2023-04-13T10:53:42.295Z,99.90
2023-04-13T10:56:24.383Z,99.90
2023-04-13T10:58:58.319Z,99.90
2023-04-13T11:01:27.333Z,99.90
2023-04-13T11:04:04.486Z,99.90
2023-04-13T11:06:40.121Z,99.90
2023-04-13T11:09:09.320Z,99.90
2023-04-13T11:11:44.814Z,99.90
2023-04-13T11:14:30.298Z,99.90
2023-04-13T11:17:07.212Z,99.90
2023-04-13T11:19:51.213Z,99.90
2023-04-13T11:25:17.617Z,99.90
2023-04-13T11:30:57.997Z,99.90
2023-04-13T11:33:25.833Z,99.90
2023-04-13T11:35:56.125Z,99.90
2023-04-13T11:38:26.186Z,99.90
2023-04-13T11:41:15.732Z,99.90
2023-04-13T11:43:53.467Z,99.90
2023-04-13T11:46:25.894Z,99.90
2023-04-13T11:48:53.373Z,99.90
2023-04-13T11:51:21.201Z,99.90
2023-04-13T11:53:54.725Z,99.90
2023-04-13T11:56:21.606Z,99.90
2023-04-13T11:58:52.202Z,99.90
2023-04-13T12:01:26.301Z,99.90
2023-04-13T12:04:12.938Z,99.90
2023-04-13T12:06:49.960Z,99.90
2023-04-13T12:09:54.531Z,99.90
2023-04-13T12:17:50.080Z,99.90
2023-04-13T12:20:20.433Z,99.90
2023-04-13T12:22:57.708Z,99.90
2023-04-13T12:25:35.814Z,99.90
2023-04-13T12:28:13.035Z,99.90
2023-04-13T12:30:40.172Z,99.90
2023-04-13T12:33:08.287Z,99.90
2023-04-13T12:35:39.082Z,99.90
2023-04-13T12:38:11.483Z,99.90
2023-04-13T12:40:57.912Z,99.90
2023-04-13T12:43:29.926Z,99.90
2023-04-13T12:46:04.747Z,99.90
2023-04-13T12:51:25.452Z,99.90
2023-04-13T13:02:05.440Z,99.90
2023-04-13T13:07:36.129Z,99.90
2023-04-13T13:23:40.830Z,99.90
2023-04-13T13:29:32.337Z,99.90
2023-04-13T13:40:33.209Z,99.90
2023-04-13T13:42:59.991Z,99.90
2023-04-13T13:45:30.058Z,99.90
2023-04-13T13:47:58.432Z,99.90
2023-04-13T13:50:26.650Z,99.90
2023-04-13T13:53:02.614Z,99.90
2023-04-13T13:55:31.698Z,99.90
2023-04-13T13:57:59.407Z,99.90
2023-04-13T14:00:29.247Z,99.90
2023-04-13T14:03:01.386Z,99.90
2023-04-13T14:05:28.614Z,99.90
2023-04-13T14:08:00.794Z,99.90
2023-04-13T14:10:29.184Z,99.90
2023-04-13T14:12:58.583Z,99.90
2023-04-13T14:15:25.877Z,99.90
2023-04-13T14:18:09.094Z,99.90
2023-04-13T14:20:45.861Z,99.90
2023-04-13T14:25:59.329Z,99.90
2023-04-13T14:28:26.125Z,99.90
2023-04-13T14:30:56.354Z,99.90
2023-04-13T14:33:27.522Z,99.90
2023-04-13T14:35:59.476Z,99.90
2023-04-13T14:38:27.854Z,99.90
2023-04-13T14:43:49.894Z,99.90
2023-04-13T14:46:26.211Z,99.90
2023-04-13T14:48:53.460Z,99.90
2023-04-13T14:51:29.240Z,99.90
2023-04-13T14:54:10.162Z,99.90
2023-04-13T14:56:46.457Z,99.90
2023-04-13T14:59:19.732Z,99.90
2023-04-13T15:01:47.379Z,99.90
2023-04-13T15:04:18.192Z,99.90
2023-04-13T15:06:52.905Z,99.90
2023-04-13T15:09:25.208Z,99.90
2023-04-13T15:11:52.337Z,99.90
2023-04-13T15:14:20.376Z,99.90
2023-04-13T15:16:49.113Z,99.90
2023-04-13T15:19:17.144Z,99.90
2023-04-13T15:21:46.986Z,99.90
2023-04-13T15:24:14.189Z,99.90
2023-04-13T15:26:41.933Z,99.90
2023-04-13T15:29:11.503Z,99.90
2023-04-13T15:31:41.420Z,99.90
2023-04-13T15:37:41.276Z,99.90
2023-04-13T15:40:55.634Z,99.90
2023-04-13T15:43:22.522Z,99.90
2023-04-13T15:45:52.187Z,99.90
2023-04-13T15:48:19.733Z,99.90
2023-04-13T15:50:46.676Z,99.90
2023-04-13T15:53:13.553Z,99.90
2023-04-13T15:55:49.206Z,99.90
2023-04-13T15:58:17.669Z,99.90
2023-04-13T16:00:46.438Z,99.90
2023-04-13T16:03:14.604Z,99.90
2023-04-13T16:05:41.736Z,99.90
2023-04-13T16:08:09.896Z,99.90
2023-04-13T16:10:37.414Z,99.90
2023-04-13T16:13:08.021Z,99.90
2023-04-13T16:15:37.700Z,99.90
2023-04-13T16:18:05.014Z,99.90
2023-04-13T16:20:32.389Z,99.90
2023-04-13T16:23:02.567Z,99.90
2023-04-13T16:25:30.817Z,99.90
2023-04-13T16:34:26.139Z,99.90
2023-04-13T16:36:53.810Z,99.90
2023-04-13T16:39:21.968Z,99.90
2023-04-13T16:41:49.646Z,99.90
2023-04-13T16:44:17.739Z,99.90
2023-04-13T16:46:44.674Z,99.90
2023-04-13T16:49:11.654Z,99.50
2023-04-13T16:51:38.631Z,99.90
2023-04-13T16:54:06.626Z,99.90
2023-04-13T16:56:33.594Z,98.80
2023-04-13T16:59:01.379Z,99.10
2023-04-13T17:01:29.581Z,98.70
2023-04-13T17:03:58.364Z,99.70
2023-04-13T17:06:26.769Z,99.90
2023-04-13T17:09:00.573Z,99.70
2023-04-13T17:11:27.515Z,99.20
2023-04-13T17:13:54.313Z,99.30
2023-04-13T17:16:21.572Z,99.80
2023-04-13T17:18:48.510Z,99.70
2023-04-13T17:21:15.330Z,99.00
2023-04-13T17:23:43.574Z,98.80
2023-04-13T17:26:12.691Z,99.00
2023-04-13T17:28:39.803Z,99.00
2023-04-13T17:31:10.838Z,99.90
2023-04-13T17:33:38.184Z,99.90
2023-04-13T17:36:05.098Z,99.50
2023-04-13T17:38:31.897Z,99.60
2023-04-13T17:40:58.897Z,99.50
2023-04-13T17:43:27.324Z,99.80
2023-04-13T17:45:54.215Z,98.90
2023-04-13T17:48:23.975Z,98.90
2023-04-13T17:50:51.807Z,99.20
2023-04-13T17:53:18.652Z,99.40
2023-04-13T17:55:45.610Z,99.70
2023-04-13T17:58:12.867Z,99.60
2023-04-13T18:00:39.938Z,99.60
2023-04-13T18:03:09.592Z,99.40
2023-04-13T18:05:36.736Z,99.50
2023-04-13T18:08:03.797Z,99.80
2023-04-13T18:10:31.541Z,99.90
2023-04-13T18:13:01.347Z,99.90
2023-04-13T18:15:29.647Z,99.90
2023-04-13T18:17:56.544Z,99.90
2023-04-13T18:20:23.517Z,99.90
2023-04-13T18:22:51.747Z,99.90
2023-04-13T18:25:20.168Z,99.90
2023-04-13T18:27:47.466Z,99.90
2023-04-13T18:30:16.643Z,99.90
2023-04-13T18:32:43.499Z,99.90
2023-04-13T18:35:12.546Z,99.90
2023-04-13T18:37:39.620Z,99.90
2023-04-13T18:40:07.443Z,99.90
2023-04-13T18:42:34.502Z,99.90
2023-04-13T18:45:02.039Z,99.90
2023-04-13T18:47:28.937Z,99.90
2023-04-13T18:49:57.624Z,99.90
2023-04-13T18:52:26.048Z,99.90
2023-04-13T18:54:53.345Z,99.90
2023-04-13T18:57:20.256Z,99.90
2023-04-13T18:59:47.135Z,99.90
2023-04-13T19:02:16.851Z,99.90
2023-04-13T19:04:44.100Z,99.90
2023-04-13T19:07:11.056Z,99.90
2023-04-13T19:09:38.673Z,99.90
2023-04-13T19:12:06.774Z,99.90
2023-04-13T19:14:35.130Z,99.90
2023-04-13T19:17:03.242Z,99.90
2023-04-13T19:19:30.054Z,99.90
2023-04-13T19:21:58.397Z,99.90
2023-04-13T19:24:25.333Z,99.90
2023-04-13T19:26:52.185Z,99.90
2023-04-13T19:29:22.157Z,99.90
2023-04-13T19:31:50.275Z,99.90
2023-04-13T19:34:17.540Z,99.90
2023-04-13T19:36:47.005Z,99.90
2023-04-13T19:39:14.931Z,99.90
2023-04-13T19:41:42.025Z,99.90
2023-04-13T19:44:09.207Z,99.90
2023-04-13T19:46:36.475Z,99.90
2023-04-13T19:49:04.191Z,99.90
2023-04-13T19:51:32.986Z,99.90
2023-04-13T19:54:03.277Z,99.90
2023-04-13T19:56:36.653Z,99.90
2023-04-13T19:59:05.242Z,99.90
2023-04-13T20:01:33.960Z,99.90
2023-04-13T20:04:03.779Z,99.90
2023-04-13T20:06:33.522Z,99.90
2023-04-13T20:09:13.990Z,99.90
2023-04-13T20:11:44.134Z,99.90
2023-04-13T20:14:12.653Z,99.90
2023-04-13T20:16:39.558Z,99.90
2023-04-13T20:19:09.504Z,99.90
2023-04-13T20:21:36.812Z,99.90
2023-04-13T20:24:04.579Z,99.90
2023-04-13T20:26:33.021Z,99.90
2023-04-13T20:29:01.810Z,99.90
2023-04-13T20:31:30.777Z,99.90
2023-04-13T20:33:58.411Z,99.90
2023-04-13T20:36:25.794Z,99.90
2023-04-13T20:38:53.013Z,99.90
2023-04-13T20:41:22.012Z,99.90
2023-04-13T20:43:50.957Z,99.90
2023-04-13T20:46:17.865Z,99.90
2023-04-13T20:51:17.002Z,99.90
2023-04-13T20:53:44.084Z,99.90
2023-04-13T20:56:11.566Z,99.90
2023-04-13T20:58:38.752Z,99.90
2023-04-13T21:01:05.814Z,99.90
2023-04-13T21:03:33.167Z,99.90
2023-04-13T21:06:01.282Z,99.90
2023-04-13T21:08:28.214Z,99.90
2023-04-13T21:10:55.046Z,99.90
2023-04-13T21:13:22.291Z,99.90
2023-04-13T21:15:49.091Z,99.90
2023-04-13T21:18:16.120Z,99.90
2023-04-13T21:20:43.870Z,99.90
2023-04-13T21:23:12.035Z,99.90
2023-04-13T21:25:38.952Z,99.90
2023-04-13T21:28:05.837Z,99.90
2023-04-13T21:30:32.865Z,99.90
2023-04-13T21:32:59.755Z,99.90
2023-04-13T21:35:26.698Z,99.90
2023-04-13T21:37:53.478Z,99.90
2023-04-13T21:40:24.245Z,99.90
2023-04-13T21:42:51.242Z,99.90
2023-04-13T21:45:18.114Z,99.90
2023-04-13T21:47:47.174Z,99.90
2023-04-13T21:50:15.978Z,99.90
2023-04-13T21:52:42.834Z,99.90
2023-04-13T21:55:14.177Z,99.90
2023-04-13T21:57:43.358Z,99.90
2023-04-13T22:00:13.293Z,99.90
2023-04-13T22:02:42.096Z,99.90
2023-04-13T22:05:11.277Z,99.90
2023-04-13T22:07:44.424Z,99.90
2023-04-13T22:10:11.676Z,99.90
2023-04-13T22:12:38.715Z,99.90
2023-04-13T22:15:06.415Z,99.90
2023-04-13T22:17:33.692Z,99.90
2023-04-13T22:20:01.160Z,99.90
2023-04-13T22:22:27.973Z,99.90
2023-04-13T22:24:55.046Z,99.90
2023-04-13T22:27:22.278Z,99.90
2023-04-13T22:29:49.511Z,99.90
2023-04-13T22:32:16.810Z,99.90
2023-04-13T22:34:45.441Z,99.90
2023-04-13T22:37:15.161Z,99.90
2023-04-13T22:39:44.974Z,99.90
2023-04-13T22:42:13.075Z,99.90
2023-04-13T22:44:40.906Z,99.90
2023-04-13T22:47:08.729Z,99.90
2023-04-13T22:49:36.640Z,99.90
2023-04-13T22:52:03.617Z,99.90
2023-04-13T22:54:31.678Z,99.90
2023-04-13T22:57:02.832Z,99.90
2023-04-13T22:59:31.544Z,99.90
2023-04-13T23:01:59.441Z,99.90
2023-04-13T23:04:27.593Z,99.90
2023-04-13T23:06:54.473Z,99.90
2023-04-13T23:09:21.726Z,99.90
2023-04-13T23:11:51.086Z,99.90
2023-04-13T23:14:18.799Z,99.90
2023-04-13T23:16:48.335Z,99.90
2023-04-13T23:19:17.809Z,99.90
2023-04-13T23:21:45.870Z,99.90
2023-04-13T23:24:13.469Z,99.90
2023-04-13T23:26:43.155Z,99.90
2023-04-13T23:29:09.965Z,99.90
2023-04-13T23:31:36.903Z,99.90
2023-04-13T23:34:03.777Z,99.90
2023-04-13T23:36:34.175Z,99.90
2023-04-13T23:39:04.000Z,99.90
2023-04-13T23:41:30.960Z,99.90
2023-04-13T23:43:57.970Z,99.90
2023-04-13T23:46:25.118Z,99.90
2023-04-13T23:48:51.896Z,99.90
2023-04-13T23:51:18.693Z,99.90
2023-04-13T23:53:45.436Z,99.90
2023-04-13T23:56:13.318Z,99.90
2023-04-13T23:58:40.134Z,99.90
